Latest Coastal Weather Observations for Red Rocks Point

IDW60701

Issued at 12:42 pm WST Wednesday 10 February 2016 (issued every 10 minutes, with the page automatically refreshed every 10 minutes)

About coastal observations | Map of coastal stations | Coastal observations for WA | Marine services | Other Formats
Station Details ID: 011053 Name: RED ROCKS POINT Lat: -32.20 Lon: 127.53 Height: 3.1 m
Data from the previous 72 hours. | See also: Recent months at Red Rocks Point
Date/Time
WST
Temp

°C
Wind Pressure Rain
since 9am
mm
Weather Cloud Vis
km
Sea
Height
m
Swell
Dir
 
Speed
knots
Gust
knots
hPa Trend Height
m
Period
s
Dir
10/12:30pm 23.1 SE 11 14 1017.8 - 0.0 - - - - - - -
10/12:00pm 23.3 SE 10 13 1017.7 - 0.0 - - - - - - -
10/11:30am 23.6 SE 9 12 1017.9 - 0.0 - - - - - - -
10/11:00am 23.0 SE 10 12 1018.2 - 0.0 - - - - - - -
10/10:30am 23.2 ESE 10 13 1018.1 - 0.0 - - - - - - -
10/10:00am 23.2 ESE 9 11 1018.3 - 0.0 - - - - - - -
10/09:30am 22.9 ESE 7 10 1018.3 - 0.0 - - - - - - -
10/09:00am 23.0 E 7 11 1018.5 - 0.0 - - - - - - -
10/08:30am 22.1 ESE 8 11 1018.4 - 0.0 - - - - - - -
10/08:00am 22.1 E 7 9 1018.5 - 0.0 - - - - - - -
10/07:30am 21.1 ENE 7 8 1018.2 - 0.0 - - - - - - -
10/07:00am 20.2 ENE 6 8 1018.0 - 0.0 - - - - - - -
10/06:30am 18.6 N 4 6 1017.7 - 0.0 - - - - - - -
10/06:00am 17.0 CALM 0 0 1017.4 - 0.0 - - - - - - -
10/05:30am 16.0 N 5 7 1017.1 - 0.0 - - - - - - -
10/05:00am 16.5 N 6 8 1016.5 - 0.0 - - - - - - -
10/04:30am 19.2 ENE 9 11 1016.3 - 0.0 - - - - - - -
10/04:00am 19.7 E 11 13 1016.3 - 0.0 - - - - - - -
10/03:30am 19.7 E 10 13 1016.2 - 0.0 - - - - - - -
10/03:00am 20.1 E 11 13 1016.3 - 0.0 - - - - - - -
10/02:30am 19.2 ENE 6 11 1016.5 - 0.0 - - - - - - -
10/02:00am 17.7 NNE 5 6 1016.5 - 0.0 - - - - - - -
10/01:30am 18.1 NNE 6 8 1016.2 - 0.0 - - - - - - -
10/01:00am 20.1 ENE 12 14 1016.2 - 0.0 - - - - - - -
10/12:30am 20.2 E 12 14 1016.6 - 0.0 - - - - - - -
10/12:00am 20.4 E 11 14 1017.2 - 0.0 - - - - - - -
 
Date/Time
WST
Temp

°C
Wind Pressure Rain
since 9am
mm
Weather Cloud Vis
km
Sea
Height
m
Swell
Dir
 
Speed
knots
Gust
knots
hPa Trend Height
m
Period
s
Dir
09/11:30pm 20.6 E 13 16 1017.4 - 0.0 - - - - - - -
09/11:00pm 20.4 E 13 16 1017.5 - 0.0 - - - - - - -
09/10:30pm 20.4 E 14 16 1017.7 - 0.0 - - - - - - -
09/10:00pm 20.6 E 14 16 1017.9 - 0.0 - - - - - - -
09/09:30pm 20.5 E 14 16 1018.1 - 0.0 - - - - - - -
09/09:00pm 20.6 E 14 17 1018.2 - 0.0 - - - - - - -
09/08:30pm 20.7 ESE 14 16 1018.3 - 0.0 - - - - - - -
09/08:00pm 20.7 ESE 13 16 1018.3 - 0.0 - - - - - - -
09/07:30pm 20.7 ESE 13 15 1018.2 - 0.0 - - - - - - -
09/07:00pm 20.7 ESE 13 15 1017.8 - 0.0 - - - - - - -
09/06:30pm 20.8 ESE 12 13 1017.6 - 0.0 - - - - - - -
09/06:00pm 21.0 ESE 12 14 1017.5 - 0.0 - - - - - - -
09/05:30pm 21.4 ESE 13 15 1017.4 - 0.0 - - - - - - -
09/05:00pm 21.9 ESE 12 15 1017.4 - 0.0 - - - - - - -
09/04:30pm 22.2 ESE 13 15 1017.4 - 0.0 - - - - - - -
09/04:00pm 22.6 ESE 13 15 1017.4 - 0.0 - - - - - - -
09/03:30pm 22.9 ESE 13 15 1017.3 - 0.0 - - - - - - -
09/03:00pm 23.0 ESE 13 15 1017.5 - 0.0 - - - - - - -
09/02:30pm 22.8 ESE 13 15 1017.8 - 0.0 - - - - - - -
09/02:00pm 23.3 ESE 12 14 1018.0 - 0.0 - - - - - - -
09/01:30pm 23.8 ESE 13 14 1018.2 - 0.0 - - - - - - -
09/01:00pm 23.5 ESE 13 15 1018.4 - 0.0 - - - - - - -
09/12:30pm 23.2 ESE 13 15 1018.9 - 0.0 - - - - - - -
09/12:00pm 23.1 ESE 13 15 1019.2 - 0.0 - - - - - - -
09/11:30am 23.4 ESE 12 14 1019.4 - 0.0 - - - - - - -
09/11:00am 23.6 ESE 12 13 1019.8 - 0.0 - - - - - - -
09/10:30am 23.5 ESE 11 13 1020.1 - 0.0 - - - - - - -
09/10:00am 23.2 ESE 11 14 1020.4 - 0.0 - - - - - - -
09/09:30am 23.0 ESE 12 14 1020.5 - 0.0 - - - - - - -
09/09:00am 22.8 ESE 11 13 1020.7 - 0.0 - - - - - - -
09/08:30am 22.7 E 11 13 1020.6 - 0.0 - - - - - - -
09/08:00am 22.1 E 11 14 1020.5 - 0.0 - - - - - - -
09/07:30am 21.4 ENE 11 14 1020.8 - 0.0 - - - - - - -
09/07:00am 21.3 ENE 9 11 1020.8 - 0.0 - - - - - - -
09/06:30am 20.7 ENE 12 16 1020.5 - 0.0 - - - - - - -
09/06:00am 19.8 NE 5 7 1020.6 - 0.0 - - - - - - -
09/05:30am 19.7 E 13 16 1020.4 - 0.0 - - - - - - -
09/05:00am 19.9 E 12 15 1020.0 - 0.0 - - - - - - -
09/04:30am 19.5 E 12 15 1019.8 - 0.0 - - - - - - -
09/04:00am 19.4 E 13 16 1019.8 - 0.0 - - - - - - -
09/03:30am 19.5 E 13 16 1019.7 - 0.0 - - - - - - -
09/03:00am 19.5 ESE 13 16 1019.7 - 0.0 - - - - - - -
09/02:30am 19.7 E 14 16 1019.7 - 0.0 - - - - - - -
09/02:00am 19.7 ESE 14 18 1020.0 - 0.0 - - - - - - -
09/01:30am 19.9 E 14 19 1020.0 - 0.0 - - - - - - -
09/01:00am 20.0 E 16 20 1020.2 - 0.0 - - - - - - -
09/12:30am 20.3 E 15 20 1020.4 - 0.0 - - - - - - -
09/12:00am 20.0 E 14 18 1021.1 - 0.0 - - - - - - -
 
Date/Time
WST
Temp

°C
Wind Pressure Rain
since 9am
mm
Weather Cloud Vis
km
Sea
Height
m
Swell
Dir
 
Speed
knots
Gust
knots
hPa Trend Height
m
Period
s
Dir
08/11:30pm 20.2 E 18 23 1021.3 - 0.0 - - - - - - -
08/11:00pm 20.0 E 15 20 1021.7 - 0.0 - - - - - - -
08/10:30pm 20.1 E 16 19 1022.1 - 0.0 - - - - - - -
08/10:00pm 20.1 E 16 21 1022.1 - 0.0 - - - - - - -
08/09:30pm 20.3 E 17 21 1022.0 - 0.0 - - - - - - -
08/09:00pm 20.3 E 19 23 1022.0 - 0.0 - - - - - - -
08/08:30pm 20.7 E 17 22 1022.4 - 0.0 - - - - - - -
08/08:00pm 20.7 E 16 19 1022.4 - 0.0 - - - - - - -
08/07:30pm 20.6 ESE 16 19 1022.2 - 0.0 - - - - - - -
08/07:00pm 20.5 ESE 16 21 1022.1 - 0.0 - - - - - - -
08/06:30pm 20.6 ESE 16 20 1021.8 - 0.0 - - - - - - -
08/06:00pm 20.5 ESE 16 20 1021.8 - 0.0 - - - - - - -
08/05:30pm 20.9 E 14 17 1021.6 - 0.0 - - - - - - -
08/05:00pm 20.9 ESE 15 18 1021.4 - 0.0 - - - - - - -
08/04:30pm 21.2 ESE 14 17 1021.6 - 0.0 - - - - - - -
08/04:00pm 21.5 ESE 14 17 1021.7 - 0.0 - - - - - - -
08/03:30pm 21.6 ESE 15 18 1021.9 - 0.0 - - - - - - -
08/03:00pm 22.1 E 15 20 1022.0 - 0.0 - - - - - - -
08/02:30pm 22.2 E 15 18 1022.2 - 0.0 - - - - - - -
08/02:00pm 22.1 ESE 13 16 1022.4 - 0.0 - - - - - - -
08/01:30pm 22.2 ESE 16 19 1022.6 - 0.0 - - - - - - -
08/01:00pm 22.6 ESE 15 18 1022.9 - 0.0 - - - - - - -
08/12:30pm 21.8 ESE 14 17 1023.2 - 0.0 - - - - - - -
08/12:00pm 22.2 E 15 19 1023.4 - 0.0 - - - - - - -
08/11:30am 22.1 ESE 15 19 1023.7 - 0.0 - - - - - - -
08/11:00am 21.7 ESE 14 16 1024.0 - 0.0 - - - - - - -
08/10:30am 21.9 ESE 14 16 1024.1 - 0.0 - - - - - - -
08/10:00am 21.4 ESE 15 19 1024.4 - 0.0 - - - - - - -
08/09:30am 21.3 ESE 16 19 1024.5 - 0.0 - - - - - - -
08/09:00am 20.9 ESE 13 17 1024.3 - 0.0 - - - - - - -
08/08:30am 20.7 E 15 19 1024.4 - 0.0 - - - - - - -
08/08:00am 20.2 E 14 19 1024.2 - 0.0 - - - - - - -
08/07:30am 19.9 ESE 14 20 1024.1 - 0.0 - - - - - - -
08/07:00am 19.9 ESE 13 17 1024.0 - 0.0 - - - - - - -
08/06:30am 19.6 ESE 16 19 1023.8 - 0.0 - - - - - - -
08/06:00am 19.1 E 13 18 1023.7 - 0.0 - - - - - - -
08/05:30am 19.3 E 13 17 1023.5 - 0.0 - - - - - - -
08/05:00am 19.2 ESE 13 17 1023.3 - 0.0 - - - - - - -
08/04:30am 19.6 E 13 16 1023.0 - 0.0 - - - - - - -
08/04:00am 19.2 E 13 17 1023.0 - 0.0 - - - - - - -
08/03:30am 19.4 ESE 13 18 1022.8 - 0.0 - - - - - - -
08/03:00am 19.5 ESE 14 18 1022.6 - 0.0 - - - - - - -
08/02:30am 19.7 ESE 15 20 1022.7 - 0.0 - - - - - - -
08/02:00am 19.6 ESE 15 19 1022.7 - 0.0 - - - - - - -
08/01:30am 19.6 ESE 16 20 1022.8 - 0.0 - - - - - - -
08/01:00am 19.6 ESE 15 20 1022.9 - 0.0 - - - - - - -
08/12:30am 19.7 ESE 15 19 1023.2 - 0.0 - - - - - - -
08/12:00am 19.9 E 16 21 1023.3 - 0.0 - - - - - - -
 
Date/Time
WST
Temp

°C
Wind Pressure Rain
since 9am
mm
Weather Cloud Vis
km
Sea
Height
m
Swell
Dir
 
Speed
knots
Gust
knots
hPa Trend Height
m
Period
s
Dir
07/11:30pm 19.9 E 16 20 1023.6 - 0.0 - - - - - - -
07/11:00pm 20.1 ESE 16 21 1023.7 - 0.0 - - - - - - -
07/10:30pm 20.3 ESE 16 22 1023.9 - 0.0 - - - - - - -
07/10:00pm 20.1 E 18 22 1024.0 - 0.0 - - - - - - -
07/09:30pm 20.2 ESE 17 21 1024.0 - 0.0 - - - - - - -
07/09:00pm 20.1 ESE 18 22 1024.0 - 0.0 - - - - - - -
07/08:30pm 20.3 ESE 17 21 1023.8 - 0.0 - - - - - - -
07/08:00pm 20.4 ESE 17 22 1023.4 - 0.0 - - - - - - -
07/07:30pm 20.2 ESE 17 20 1022.9 - 0.0 - - - - - - -
07/07:00pm 20.1 ESE 17 21 1022.6 - 0.0 - - - - - - -
07/06:30pm 20.1 ESE 17 22 1022.3 - 0.0 - - - - - - -
07/06:00pm 20.4 ESE 17 20 1022.0 - 0.0 - - - - - - -
07/05:30pm 20.7 ESE 17 20 1021.6 - 0.0 - - - - - - -
07/05:00pm 20.9 SE 16 18 1021.4 - 0.0 - - - - - - -
07/04:30pm 21.4 SE 15 18 1021.1 - 0.0 - - - - - - -
07/04:00pm 21.5 ESE 16 19 1021.0 - 0.0 - - - - - - -
07/03:30pm 21.9 SE 15 18 1020.9 - 0.0 - - - - - - -
07/03:00pm 22.7 SE 15 18 1020.8 - 0.0 - - - - - - -
07/02:30pm 22.6 ESE 14 17 1020.8 - 0.0 - - - - - - -
07/02:00pm 23.1 SE 14 17 1020.9 - 0.0 - - - - - - -
07/01:30pm 22.8 ESE 13 16 1020.9 - 0.0 - - - - - - -
07/01:00pm 22.8 ESE 13 16 1020.9 - 0.0 - - - - - - -

Other Formats:

Comma delimited format used in spreadsheet applications
http://www.bom.gov.au/fwo/IDW60701/IDW60701.94644.axf

JavaScript Object Notation format (JSON) in row-major order
http://www.bom.gov.au/fwo/IDW60701/IDW60701.94644.json